Terminal Aerodrome Forecast
Issued by NWS

Home | Current Version | Previous Version | Text Only | Print | Product List | Glossary On
Versions: 1 2 3 4 5 6 7 8 9 10 11 12 13 14 15 16 17 18 19 20 21 22 23 24 25 26 27 28 29 30 31 32 33 34 35 36 37 38 39 40 41 42
000
FTAK31 PANC 250524
TAFAEN
TAF
PAEN 250524Z 2506/2606 19014KT P6SM -RA OVC070
      TEMPO 2506/2510 BKN015
     FM251000 18005KT P6SM -RA SCT015 OVC025
     FM251400 VRB03KT P6SM -RA SCT008 OVC015
     FM252000 VRB04KT P6SM -RA SCT015 OVC030
     FM260200 30006KT P6SM SCT035 BKN070=

USA.gov is the U.S. government's official web portal to all federal, state and local government web resources and services.